createdAt,value
2018-02-24T00:00:18.060Z,36.70
2018-02-24T00:02:48.136Z,31.70
2018-02-24T00:05:18.788Z,32.87
2018-02-24T00:07:49.326Z,34.87
2018-02-24T00:10:20.162Z,31.00
2018-02-24T00:12:50.138Z,28.50
2018-02-24T00:15:21.510Z,32.30
2018-02-24T00:17:51.831Z,35.63
2018-02-24T00:20:22.359Z,34.43
2018-02-24T00:22:52.862Z,30.47
2018-02-24T00:25:23.288Z,34.07
2018-02-24T00:27:54.056Z,35.27
2018-02-24T00:30:23.959Z,35.30
2018-02-24T00:32:54.266Z,34.00
2018-02-24T00:35:24.547Z,37.73
2018-02-24T00:37:54.994Z,33.03
2018-02-24T00:40:25.353Z,35.40
2018-02-24T00:42:55.834Z,34.37
2018-02-24T00:45:25.628Z,39.17
2018-02-24T00:47:55.379Z,41.77
2018-02-24T00:50:26.493Z,47.10
2018-02-24T00:52:56.920Z,42.07
2018-02-24T00:55:27.863Z,37.03
2018-02-24T00:57:58.228Z,36.87
2018-02-24T01:00:28.638Z,40.63
2018-02-24T01:02:59.445Z,35.63
2018-02-24T01:05:29.727Z,43.40
2018-02-24T01:08:00.301Z,39.53
2018-02-24T01:10:30.723Z,40.03
2018-02-24T01:13:01.095Z,35.50
2018-02-24T01:15:31.531Z,39.27
2018-02-24T01:18:01.887Z,39.37
2018-02-24T01:20:32.099Z,38.40
2018-02-24T01:23:03.209Z,38.87
2018-02-24T01:25:33.585Z,37.23
2018-02-24T01:28:04.317Z,38.53
2018-02-24T01:30:34.628Z,38.30
2018-02-24T01:33:05.112Z,42.53
2018-02-24T01:35:35.555Z,37.83
2018-02-24T01:38:06.136Z,43.87
2018-02-24T01:40:38.073Z,40.70
2018-02-24T01:43:08.619Z,39.90
2018-02-24T01:45:38.865Z,37.23
2018-02-24T01:48:08.623Z,37.13
2018-02-24T01:50:42.820Z,38.77
2018-02-24T01:53:12.974Z,37.70
2018-02-24T01:55:43.142Z,38.47
2018-02-24T01:58:13.364Z,41.70
2018-02-24T02:00:43.612Z,37.40
2018-02-24T02:03:14.508Z,41.20
2018-02-24T02:05:44.712Z,37.67
2018-02-24T02:08:15.591Z,39.17
2018-02-24T02:10:45.713Z,32.97
2018-02-24T02:13:16.358Z,39.20
2018-02-24T02:15:47.041Z,38.57
2018-02-24T02:18:16.993Z,38.10
2018-02-24T02:20:47.041Z,37.47
2018-02-24T02:23:17.413Z,36.23
2018-02-24T02:25:47.806Z,43.30
2018-02-24T02:28:18.095Z,39.27
2018-02-24T02:30:48.348Z,39.17
2018-02-24T02:33:18.758Z,42.20
2018-02-24T02:35:49.202Z,43.70
2018-02-24T02:38:19.789Z,39.77
2018-02-24T02:40:50.217Z,38.43
2018-02-24T02:43:20.725Z,38.87
2018-02-24T02:45:50.549Z,40.87
2018-02-24T02:48:20.973Z,38.37
2018-02-24T02:50:52.217Z,40.10
2018-02-24T02:53:22.543Z,45.77
2018-02-24T02:55:53.038Z,40.87
2018-02-24T02:58:23.395Z,42.67
2018-02-24T03:00:53.805Z,45.40
2018-02-24T03:03:24.217Z,37.20
2018-02-24T03:05:54.586Z,38.77
2018-02-24T03:08:24.601Z,39.90
2018-02-24T03:10:55.047Z,44.37
2018-02-24T03:13:25.397Z,36.00
2018-02-24T03:15:55.800Z,44.67
2018-02-24T03:18:25.586Z,38.90
2018-02-24T03:20:56.027Z,41.27
2018-02-24T03:23:26.759Z,40.60
2018-02-24T03:25:57.098Z,42.37
2018-02-24T03:28:27.542Z,39.47
2018-02-24T03:30:58.338Z,43.73
2018-02-24T03:33:29.062Z,44.00
2018-02-24T03:35:58.916Z,42.47
2018-02-24T03:38:29.283Z,43.43
2018-02-24T03:40:59.578Z,43.30
2018-02-24T03:43:30.425Z,42.30
2018-02-24T03:46:12.532Z,41.80
2018-02-24T03:48:42.401Z,41.90
2018-02-24T03:51:12.921Z,45.13
2018-02-24T03:53:42.822Z,46.43
2018-02-24T03:56:13.135Z,46.83
2018-02-24T03:58:43.299Z,41.30
2018-02-24T04:01:13.654Z,51.57
2018-02-24T04:03:43.989Z,49.17
2018-02-24T04:06:14.297Z,44.63
2018-02-24T04:08:44.615Z,48.27
2018-02-24T04:11:14.561Z,43.50
2018-02-24T04:13:45.330Z,50.03
2018-02-24T04:16:16.082Z,50.77
2018-02-24T04:18:47.723Z,56.20
2018-02-24T04:21:17.964Z,50.80
2018-02-24T04:23:48.848Z,60.90
2018-02-24T04:26:19.000Z,51.00
2018-02-24T04:28:50.347Z,57.53
2018-02-24T04:31:20.718Z,58.23
2018-02-24T04:33:50.917Z,54.40
2018-02-24T04:36:21.571Z,56.47
2018-02-24T04:38:52.260Z,60.47
2018-02-24T04:41:22.780Z,60.07
2018-02-24T04:43:53.121Z,54.30
2018-02-24T04:46:23.307Z,60.67
2018-02-24T04:48:53.812Z,60.67
2018-02-24T04:51:23.682Z,56.03
2018-02-24T04:53:54.038Z,53.53
2018-02-24T04:56:24.540Z,60.80
2018-02-24T04:58:55.320Z,65.07
2018-02-24T05:01:25.863Z,62.93
2018-02-24T05:03:56.364Z,64.87
2018-02-24T05:06:26.835Z,59.87
2018-02-24T05:08:57.336Z,68.83
2018-02-24T05:11:27.745Z,67.50
2018-02-24T05:13:58.295Z,62.27
2018-02-24T05:16:28.705Z,56.80
2018-02-24T05:18:59.298Z,77.13
2018-02-24T05:21:29.761Z,68.37
2018-02-24T05:24:00.190Z,74.30
2018-02-24T05:26:30.452Z,69.13
2018-02-24T05:29:00.948Z,72.37
2018-02-24T05:31:31.442Z,59.23
2018-02-24T05:34:02.276Z,69.90
2018-02-24T05:36:32.585Z,66.30
2018-02-24T05:39:04.022Z,64.33
2018-02-24T05:41:33.958Z,63.07
2018-02-24T05:44:04.398Z,69.20
2018-02-24T05:46:35.155Z,71.57
2018-02-24T05:49:05.399Z,78.30
2018-02-24T05:51:35.788Z,76.40
2018-02-24T05:54:05.925Z,80.27
2018-02-24T05:56:35.795Z,79.83
2018-02-24T05:59:06.468Z,73.93
2018-02-24T06:01:37.238Z,77.73
2018-02-24T06:04:07.214Z,71.40
2018-02-24T06:06:37.519Z,82.57
2018-02-24T06:09:07.819Z,83.73
2018-02-24T06:11:38.635Z,77.57
2018-02-24T06:14:10.699Z,73.30
2018-02-24T06:16:41.313Z,81.87
2018-02-24T06:19:11.870Z,83.13
2018-02-24T06:21:42.683Z,88.03
2018-02-24T06:24:12.750Z,80.93
2018-02-24T06:26:43.716Z,88.23
2018-02-24T06:29:14.561Z,77.80
2018-02-24T06:31:45.579Z,74.40
2018-02-24T06:34:16.855Z,76.13
2018-02-24T06:36:48.281Z,83.17
2018-02-24T06:39:19.514Z,82.17
2018-02-24T06:41:49.706Z,85.53
2018-02-24T06:44:20.091Z,74.40
2018-02-24T06:46:50.315Z,82.57
2018-02-24T06:49:20.749Z,74.37
2018-02-24T06:51:51.236Z,78.73
2018-02-24T06:54:21.588Z,70.83
2018-02-24T06:56:51.543Z,73.00
2018-02-24T06:59:22.087Z,84.37
2018-02-24T07:01:52.701Z,77.70
2018-02-24T07:04:22.584Z,84.63
2018-02-24T07:06:53.018Z,88.40
2018-02-24T07:09:23.501Z,80.37
2018-02-24T07:11:53.779Z,73.60
2018-02-24T07:14:24.300Z,72.13
2018-02-24T07:16:54.204Z,76.97
2018-02-24T07:19:24.672Z,78.90
2018-02-24T07:21:55.060Z,84.60
2018-02-24T07:24:25.414Z,73.00
2018-02-24T07:26:55.237Z,83.63
2018-02-24T07:29:25.632Z,73.77
2018-02-24T07:31:56.044Z,69.27
2018-02-24T07:34:26.518Z,69.20
2018-02-24T07:36:57.156Z,78.97
2018-02-24T07:39:27.608Z,74.57
2018-02-24T07:41:57.369Z,71.10
2018-02-24T07:44:28.800Z,73.43
2018-02-24T07:47:01.985Z,74.00
2018-02-24T07:49:32.629Z,62.53
2018-02-24T07:52:03.234Z,69.40
2018-02-24T07:54:33.584Z,61.27
2018-02-24T07:57:04.093Z,63.70
2018-02-24T07:59:34.410Z,66.90
2018-02-24T08:02:05.172Z,65.23
2018-02-24T08:04:35.971Z,60.10
2018-02-24T08:07:06.459Z,59.50
2018-02-24T08:09:37.181Z,58.00
2018-02-24T08:12:07.518Z,59.63
2018-02-24T08:14:38.243Z,57.83
2018-02-24T08:17:08.628Z,57.13
2018-02-24T08:19:38.680Z,56.53
2018-02-24T08:22:09.233Z,61.27
2018-02-24T08:24:39.559Z,60.23
2018-02-24T08:27:09.761Z,56.67
2018-02-24T08:29:40.340Z,64.90
2018-02-24T08:32:11.014Z,60.10
2018-02-24T08:34:41.822Z,59.73
2018-02-24T08:37:12.243Z,64.13
2018-02-24T08:39:43.012Z,64.50
2018-02-24T08:42:13.513Z,62.37
2018-02-24T08:44:44.062Z,59.10
2018-02-24T08:47:15.564Z,65.57
2018-02-24T08:49:46.552Z,62.87
2018-02-24T08:52:17.086Z,57.53
2018-02-24T08:54:47.460Z,60.07
2018-02-24T08:57:17.874Z,68.37
2018-02-24T08:59:48.550Z,57.60
2018-02-24T09:02:18.863Z,60.57
2018-02-24T09:04:49.928Z,67.07
2018-02-24T09:07:20.233Z,64.63
2018-02-24T09:09:51.042Z,62.67
2018-02-24T09:12:21.752Z,63.97
2018-02-24T09:14:52.148Z,55.93
2018-02-24T09:17:22.679Z,63.77
2018-02-24T09:19:52.910Z,57.67
2018-02-24T09:22:23.225Z,57.00
2018-02-24T09:24:53.134Z,57.20
2018-02-24T09:27:23.618Z,58.90
2018-02-24T09:29:54.216Z,63.17
2018-02-24T09:32:24.227Z,58.37
2018-02-24T09:34:54.963Z,63.07
2018-02-24T09:37:25.732Z,65.00
2018-02-24T09:39:56.517Z,57.43
2018-02-24T09:42:27.186Z,54.93
2018-02-24T09:44:57.983Z,55.57
2018-02-24T09:47:28.436Z,61.60
2018-02-24T09:49:59.192Z,55.50
2018-02-24T09:52:29.771Z,51.73
2018-02-24T09:55:00.119Z,54.73
2018-02-24T09:57:31.006Z,55.00
2018-02-24T10:00:00.982Z,58.60
2018-02-24T10:02:31.880Z,57.50
2018-02-24T10:05:02.740Z,53.47
2018-02-24T10:07:33.607Z,52.57
2018-02-24T10:10:04.542Z,53.53
2018-02-24T10:12:36.082Z,53.33
2018-02-24T10:15:06.641Z,46.10
2018-02-24T10:17:36.762Z,51.47
2018-02-24T10:20:07.200Z,47.03
2018-02-24T10:22:37.279Z,55.17
2018-02-24T10:25:08.680Z,50.63
2018-02-24T10:27:38.483Z,54.43
2018-02-24T10:30:09.046Z,53.17
2018-02-24T10:32:39.658Z,46.20
2018-02-24T10:35:10.160Z,50.13
2018-02-24T10:37:39.942Z,43.73
2018-02-24T10:40:10.429Z,47.37
2018-02-24T10:42:40.786Z,40.20
2018-02-24T10:45:12.091Z,41.67
2018-02-24T10:47:42.680Z,47.83
2018-02-24T10:50:13.200Z,45.77
2018-02-24T10:52:43.739Z,46.13
2018-02-24T10:55:14.923Z,37.90
2018-02-24T10:57:45.322Z,39.30
2018-02-24T11:00:16.186Z,38.03
2018-02-24T11:02:46.633Z,34.07
2018-02-24T11:05:17.097Z,39.47
2018-02-24T11:07:47.877Z,35.83
2018-02-24T11:10:19.059Z,34.60
2018-02-24T11:12:49.452Z,31.13
2018-02-24T11:15:19.951Z,32.17
2018-02-24T11:17:49.984Z,31.97
2018-02-24T11:20:20.243Z,34.30
2018-02-24T11:22:49.992Z,33.40
2018-02-24T11:25:20.388Z,36.80
2018-02-24T11:27:50.916Z,31.87
2018-02-24T11:30:21.476Z,32.47
2018-02-24T11:32:52.057Z,34.90
2018-02-24T11:35:23.388Z,31.97
2018-02-24T11:37:53.853Z,35.00
2018-02-24T11:40:24.680Z,37.07
2018-02-24T11:42:55.087Z,33.30
2018-02-24T11:45:25.676Z,37.33
2018-02-24T11:47:55.944Z,40.20
2018-02-24T11:50:26.465Z,41.97
2018-02-24T11:52:57.109Z,37.20
2018-02-24T11:55:27.686Z,33.33
2018-02-24T11:57:58.324Z,40.67
2018-02-24T12:00:28.775Z,39.40
2018-02-24T12:02:58.840Z,37.33
2018-02-24T12:05:28.641Z,34.90
2018-02-24T12:07:59.138Z,33.73
2018-02-24T12:10:29.583Z,33.97
2018-02-24T12:13:00.116Z,35.53
2018-02-24T12:15:30.546Z,34.60
2018-02-24T12:18:01.092Z,35.27
2018-02-24T12:20:31.502Z,32.57
2018-02-24T12:23:02.068Z,30.30
2018-02-24T12:25:31.859Z,29.37
2018-02-24T12:28:02.437Z,35.53
2018-02-24T12:30:32.866Z,34.77
2018-02-24T12:33:02.843Z,31.63
2018-02-24T12:35:32.748Z,38.70
2018-02-24T12:38:03.365Z,34.80
2018-02-24T12:40:34.928Z,34.17
2018-02-24T12:43:05.419Z,34.03
2018-02-24T12:45:35.546Z,30.00
2018-02-24T12:48:05.355Z,32.07
2018-02-24T12:50:35.640Z,33.77
2018-02-24T12:53:05.988Z,28.87
2018-02-24T12:55:36.983Z,32.43
2018-02-24T12:58:07.898Z,28.97
2018-02-24T13:00:38.597Z,32.57
2018-02-24T13:03:08.976Z,30.73
2018-02-24T13:05:39.791Z,31.47
2018-02-24T13:08:10.301Z,30.80
2018-02-24T13:10:41.342Z,29.33
2018-02-24T13:13:11.817Z,30.70
2018-02-24T13:15:42.885Z,30.07
2018-02-24T13:18:14.990Z,35.17
2018-02-24T13:20:45.026Z,33.57
2018-02-24T13:23:15.861Z,33.20
2018-02-24T13:25:46.553Z,32.87
2018-02-24T13:28:16.828Z,30.70
2018-02-24T13:30:47.338Z,33.60
2018-02-24T13:33:18.426Z,32.10
2018-02-24T13:35:49.999Z,36.00
2018-02-24T13:38:20.901Z,32.23
2018-02-24T13:40:51.436Z,31.47
2018-02-24T13:43:21.650Z,31.53
2018-02-24T13:45:51.626Z,33.33
2018-02-24T13:48:22.009Z,31.77
2018-02-24T13:50:53.088Z,29.00
2018-02-24T13:53:23.483Z,26.13
2018-02-24T13:55:53.355Z,29.37
2018-02-24T13:58:24.390Z,27.57
2018-02-24T14:00:54.944Z,29.77
2018-02-24T14:03:25.178Z,29.33
2018-02-24T14:05:55.825Z,31.73
2018-02-24T14:08:26.087Z,28.60
2018-02-24T14:10:56.330Z,30.03
2018-02-24T14:13:26.220Z,30.93
2018-02-24T14:15:56.138Z,32.17
2018-02-24T14:18:29.738Z,30.87
2018-02-24T14:21:05.099Z,34.93
2018-02-24T14:23:35.043Z,30.07
2018-02-24T14:26:12.406Z,32.10
2018-02-24T14:28:52.442Z,31.30
2018-02-24T14:31:22.708Z,30.00
2018-02-24T14:33:53.237Z,29.97
2018-02-24T14:36:23.643Z,30.17
2018-02-24T14:38:54.425Z,30.83
2018-02-24T14:41:25.023Z,31.50
2018-02-24T14:43:54.885Z,30.83
2018-02-24T14:46:24.803Z,31.83
2018-02-24T14:48:54.673Z,32.20
2018-02-24T14:51:27.209Z,26.87
2018-02-24T14:53:58.470Z,25.60
2018-02-24T14:56:29.054Z,24.43
2018-02-24T14:58:59.995Z,28.03
2018-02-24T15:01:30.825Z,26.53
2018-02-24T15:04:01.766Z,25.73
2018-02-24T15:06:32.157Z,25.17
2018-02-24T15:09:03.606Z,27.73
2018-02-24T15:11:34.368Z,26.73
2018-02-24T15:14:05.283Z,25.27
2018-02-24T15:16:35.725Z,27.40
2018-02-24T15:19:06.152Z,26.97
2018-02-24T15:21:37.437Z,27.80
2018-02-24T15:24:07.295Z,27.53
2018-02-24T15:26:37.263Z,23.90
2018-02-24T15:29:07.333Z,25.67
2018-02-24T15:31:37.829Z,26.07
2018-02-24T15:34:08.169Z,24.40
2018-02-24T15:36:38.525Z,24.70
2018-02-24T15:39:08.333Z,26.90
2018-02-24T15:41:38.035Z,30.20
2018-02-24T15:44:08.620Z,26.10
2018-02-24T15:46:38.341Z,27.13
2018-02-24T15:49:08.061Z,24.67
2018-02-24T15:51:37.847Z,26.13
2018-02-24T15:54:07.601Z,30.80
2018-02-24T15:56:37.347Z,30.50
2018-02-24T15:59:07.117Z,30.80
2018-02-24T16:01:36.843Z,34.60
2018-02-24T16:04:06.612Z,36.83
2018-02-24T16:06:36.348Z,35.43
2018-02-24T16:09:06.123Z,40.10
2018-02-24T16:11:35.846Z,44.23
2018-02-24T16:14:05.564Z,40.90
2018-02-24T16:16:35.392Z,41.43
2018-02-24T16:19:05.173Z,38.50
2018-02-24T16:21:34.992Z,41.93
2018-02-24T16:24:04.747Z,39.73
2018-02-24T16:26:34.513Z,39.77
2018-02-24T16:29:04.381Z,38.63
2018-02-24T16:31:34.118Z,43.60
2018-02-24T16:34:03.851Z,40.27
2018-02-24T16:36:33.690Z,43.60
2018-02-24T16:39:03.581Z,41.83
2018-02-24T16:41:33.357Z,36.20
2018-02-24T16:44:03.118Z,39.47
2018-02-24T16:46:32.953Z,42.63
2018-02-24T16:49:02.756Z,42.90
2018-02-24T16:51:32.550Z,37.67
2018-02-24T16:54:02.312Z,38.43
2018-02-24T16:56:32.042Z,40.83
2018-02-24T16:59:01.766Z,42.17
2018-02-24T17:01:31.571Z,40.53
2018-02-24T17:04:01.347Z,42.40
2018-02-24T17:06:31.120Z,43.83
2018-02-24T17:09:00.835Z,39.80
2018-02-24T17:11:30.580Z,40.27
2018-02-24T17:14:00.380Z,40.23
2018-02-24T17:16:30.121Z,41.37
2018-02-24T17:19:00.034Z,46.67
2018-02-24T17:21:29.768Z,52.83
2018-02-24T17:23:59.525Z,43.77
2018-02-24T17:26:29.315Z,45.90
2018-02-24T17:28:59.068Z,47.70
2018-02-24T17:31:28.852Z,43.87
2018-02-24T17:33:58.624Z,47.47
2018-02-24T17:36:28.328Z,48.43
2018-02-24T17:38:58.111Z,44.77
2018-02-24T17:41:27.876Z,49.23
2018-02-24T17:43:57.618Z,46.73
2018-02-24T17:46:27.400Z,54.60
2018-02-24T17:48:57.124Z,48.20
2018-02-24T17:51:26.864Z,50.13
2018-02-24T17:53:56.625Z,45.30
2018-02-24T17:56:26.337Z,44.40
2018-02-24T17:58:56.090Z,43.40
2018-02-24T18:01:25.811Z,40.53
2018-02-24T18:03:55.645Z,49.40
2018-02-24T18:06:25.389Z,49.43
2018-02-24T18:08:55.200Z,43.23
2018-02-24T18:11:25.002Z,48.60
2018-02-24T18:13:54.833Z,46.47
2018-02-24T18:16:24.623Z,43.60
2018-02-24T18:18:54.431Z,44.43
2018-02-24T18:21:24.166Z,45.87
2018-02-24T18:23:54.034Z,44.83
2018-02-24T18:26:23.801Z,46.73
2018-02-24T18:28:53.571Z,48.27
2018-02-24T18:31:23.338Z,45.80
2018-02-24T18:33:53.089Z,44.87
2018-02-24T18:36:22.942Z,43.33
2018-02-24T18:38:52.733Z,44.67
2018-02-24T18:41:22.513Z,47.57
2018-02-24T18:43:52.301Z,50.53
2018-02-24T18:46:22.069Z,44.60
2018-02-24T18:48:51.849Z,48.03
2018-02-24T18:51:21.618Z,48.03
2018-02-24T18:53:51.373Z,44.60
2018-02-24T18:56:21.190Z,48.17
2018-02-24T18:58:50.928Z,47.03
2018-02-24T19:01:20.700Z,43.47
2018-02-24T19:03:50.438Z,44.17
2018-02-24T19:06:20.183Z,44.50
2018-02-24T19:08:49.959Z,49.00
2018-02-24T19:11:19.751Z,43.03
2018-02-24T19:13:49.544Z,45.80
2018-02-24T19:16:19.279Z,50.97
2018-02-24T19:18:49.005Z,45.13
2018-02-24T19:21:18.756Z,48.13
2018-02-24T19:23:48.484Z,49.07
2018-02-24T19:26:18.276Z,46.53
2018-02-24T19:28:48.096Z,48.30
2018-02-24T19:31:17.854Z,51.90
2018-02-24T19:33:47.646Z,44.17
2018-02-24T19:36:17.383Z,46.93
2018-02-24T19:38:47.138Z,47.90
2018-02-24T19:41:16.953Z,48.20
2018-02-24T19:43:46.709Z,53.17
2018-02-24T19:46:16.585Z,55.93
2018-02-24T19:48:46.361Z,50.03
2018-02-24T19:51:16.136Z,52.50
2018-02-24T19:53:45.871Z,53.60
2018-02-24T19:56:15.590Z,54.43
2018-02-24T19:58:45.419Z,54.50
2018-02-24T20:01:15.144Z,53.33
2018-02-24T20:03:44.870Z,56.43
2018-02-24T20:06:14.624Z,54.60
2018-02-24T20:08:44.347Z,51.67
2018-02-24T20:11:14.069Z,53.13
2018-02-24T20:13:44.486Z,49.97
2018-02-24T20:16:14.290Z,45.23
2018-02-24T20:18:44.093Z,48.47
2018-02-24T20:21:13.821Z,44.17
2018-02-24T20:23:43.513Z,43.73
2018-02-24T20:26:13.267Z,43.20
2018-02-24T20:28:42.984Z,42.53
2018-02-24T20:31:12.744Z,44.23
2018-02-24T20:33:42.538Z,45.93
2018-02-24T20:36:12.253Z,46.60
2018-02-24T20:38:42.011Z,50.37
2018-02-24T20:41:11.740Z,45.20
2018-02-24T20:43:41.484Z,43.07
2018-02-24T20:46:11.303Z,47.40
2018-02-24T20:48:41.070Z,44.27
2018-02-24T20:51:10.816Z,42.57
2018-02-24T20:53:40.585Z,39.77
2018-02-24T20:56:10.339Z,47.53
2018-02-24T20:58:40.073Z,36.60
2018-02-24T21:01:09.839Z,42.50
2018-02-24T21:03:39.651Z,43.63
2018-02-24T21:06:09.473Z,41.67
2018-02-24T21:08:39.207Z,55.27
2018-02-24T21:11:09.061Z,44.60
2018-02-24T21:13:38.878Z,43.70
2018-02-24T21:16:08.627Z,47.83
2018-02-24T21:18:38.364Z,43.57
2018-02-24T21:21:08.092Z,43.73
2018-02-24T21:23:37.899Z,45.10
2018-02-24T21:26:07.690Z,43.67
2018-02-24T21:28:37.404Z,45.60
2018-02-24T21:31:07.161Z,43.33
2018-02-24T21:33:36.887Z,45.03
2018-02-24T21:36:06.695Z,41.90
2018-02-24T21:38:36.498Z,42.83
2018-02-24T21:41:06.218Z,47.27
2018-02-24T21:43:35.980Z,44.00
2018-02-24T21:46:05.729Z,44.20
2018-02-24T21:48:35.462Z,43.90
2018-02-24T21:51:05.238Z,44.83
2018-02-24T21:53:34.979Z,42.77
2018-02-24T21:56:04.798Z,41.23
2018-02-24T21:58:34.512Z,45.87
2018-02-24T22:01:04.207Z,45.23
2018-02-24T22:03:33.988Z,44.23
2018-02-24T22:06:03.725Z,46.80
2018-02-24T22:08:33.508Z,45.97
2018-02-24T22:11:03.329Z,44.20
2018-02-24T22:13:33.136Z,45.27
2018-02-24T22:16:02.910Z,40.27
2018-02-24T22:18:32.763Z,42.07
2018-02-24T22:21:02.509Z,47.87
2018-02-24T22:23:32.319Z,49.07
2018-02-24T22:26:02.119Z,45.63
2018-02-24T22:28:31.881Z,46.73
2018-02-24T22:31:01.706Z,48.37
2018-02-24T22:33:31.479Z,47.67
2018-02-24T22:36:01.225Z,43.30
2018-02-24T22:38:30.954Z,45.33
2018-02-24T22:41:00.712Z,48.97
2018-02-24T22:43:30.415Z,44.87
2018-02-24T22:46:00.124Z,45.93
2018-02-24T22:48:35.497Z,45.20
2018-02-24T22:51:05.255Z,46.17
2018-02-24T22:53:35.018Z,45.40
2018-02-24T22:56:04.783Z,47.33
2018-02-24T22:58:34.542Z,45.10
2018-02-24T23:01:04.307Z,45.77
2018-02-24T23:03:34.063Z,49.80
2018-02-24T23:06:03.914Z,52.17
2018-02-24T23:08:33.666Z,48.37
2018-02-24T23:11:03.362Z,50.60
2018-02-24T23:13:33.123Z,46.10
2018-02-24T23:16:02.816Z,47.03
2018-02-24T23:18:32.592Z,45.03
2018-02-24T23:21:02.291Z,43.77
2018-02-24T23:23:32.017Z,44.97
2018-02-24T23:26:01.772Z,47.97
2018-02-24T23:28:31.498Z,51.30
2018-02-24T23:31:01.243Z,50.33
2018-02-24T23:33:31.068Z,53.33
2018-02-24T23:36:00.764Z,43.80
2018-02-24T23:38:30.522Z,50.60
2018-02-24T23:41:00.298Z,40.40
2018-02-24T23:43:30.032Z,40.90
2018-02-24T23:45:59.789Z,44.47
2018-02-24T23:48:29.538Z,38.67
2018-02-24T23:50:59.303Z,47.43
2018-02-24T23:53:29.058Z,49.87
2018-02-24T23:55:58.927Z,41.67
2018-02-24T23:58:28.711Z,46.50
